Bradford, Texas
Current Conditions -  °F | °C
As of 2:15 PM on Sunday 25 Jan 2015 (Local Time) from KPSN Reporting Station
Clear Clear  
Wind Chill: 66°   Ceiling: Unl
Heat Index: 66°   Visibility: 10mi
Dew Point: 32°   Wind: 14mph
Humidity: 28%   Direction: 280°W
Pressure: 30"   Gusts: 24mph
Location:  31.935°N, 95.7672°W
Report Text: KPSN 252015Z AUTO 28012G21KT 10SM CLR 18/00 A3000 RMK AO2 T01911001
Loading
Personal Weather Stations






























Interactive Weather Map New forecast layout! Learn more

10-Day Weather Forecast

Advertisements
Track Severe Weather on mobile